sensor_id;sensor_type;location;lat;lon;timestamp;temperature;humidity
7445;DHT22;3764;48.126;11.594;2023-08-06T00:02:17;15.60;99.90
7445;DHT22;3764;48.126;11.594;2023-08-06T00:04:44;15.60;99.90
7445;DHT22;3764;48.126;11.594;2023-08-06T00:07:12;15.60;99.90
7445;DHT22;3764;48.126;11.594;2023-08-06T00:09:39;15.60;99.90
7445;DHT22;3764;48.126;11.594;2023-08-06T00:12:08;15.60;99.90
7445;DHT22;3764;48.126;11.594;2023-08-06T00:14:35;15.50;99.90
7445;DHT22;3764;48.126;11.594;2023-08-06T00:17:02;15.50;99.90
7445;DHT22;3764;48.126;11.594;2023-08-06T00:19:31;15.50;99.90
7445;DHT22;3764;48.126;11.594;2023-08-06T00:21:58;15.50;99.90
7445;DHT22;3764;48.126;11.594;2023-08-06T00:24:25;15.50;99.90
7445;DHT22;3764;48.126;11.594;2023-08-06T00:26:52;15.50;99.90
7445;DHT22;3764;48.126;11.594;2023-08-06T00:29:20;15.60;99.90
7445;DHT22;3764;48.126;11.594;2023-08-06T00:31:48;15.60;99.90
7445;DHT22;3764;48.126;11.594;2023-08-06T00:34:15;15.60;99.90
7445;DHT22;3764;48.126;11.594;2023-08-06T00:36:42;15.60;99.90
7445;DHT22;3764;48.126;11.594;2023-08-06T00:39:09;15.60;99.90
7445;DHT22;3764;48.126;11.594;2023-08-06T00:41:36;15.60;99.90
7445;DHT22;3764;48.126;11.594;2023-08-06T00:44:04;15.60;99.90
7445;DHT22;3764;48.126;11.594;2023-08-06T00:46:33;15.60;99.90
7445;DHT22;3764;48.126;11.594;2023-08-06T00:49:01;15.60;99.90
7445;DHT22;3764;48.126;11.594;2023-08-06T00:51:28;15.60;99.90
7445;DHT22;3764;48.126;11.594;2023-08-06T00:53:56;15.60;99.90
7445;DHT22;3764;48.126;11.594;2023-08-06T00:56:24;15.60;99.90
7445;DHT22;3764;48.126;11.594;2023-08-06T00:58:51;15.60;99.90
7445;DHT22;3764;48.126;11.594;2023-08-06T01:01:19;15.60;99.90
7445;DHT22;3764;48.126;11.594;2023-08-06T01:03:48;15.60;99.90
7445;DHT22;3764;48.126;11.594;2023-08-06T01:06:19;15.50;99.90
7445;DHT22;3764;48.126;11.594;2023-08-06T01:08:56;15.50;99.90
7445;DHT22;3764;48.126;11.594;2023-08-06T01:11:39;15.50;99.90
7445;DHT22;3764;48.126;11.594;2023-08-06T01:14:23;15.40;99.90
7445;DHT22;3764;48.126;11.594;2023-08-06T01:16:54;15.30;99.90
7445;DHT22;3764;48.126;11.594;2023-08-06T01:19:23;15.20;99.90
7445;DHT22;3764;48.126;11.594;2023-08-06T01:21:51;15.20;99.90
7445;DHT22;3764;48.126;11.594;2023-08-06T01:24:18;15.20;99.90
7445;DHT22;3764;48.126;11.594;2023-08-06T01:26:51;15.20;99.90
7445;DHT22;3764;48.126;11.594;2023-08-06T01:29:25;15.20;99.90
7445;DHT22;3764;48.126;11.594;2023-08-06T01:31:56;15.10;99.90
7445;DHT22;3764;48.126;11.594;2023-08-06T01:34:28;15.10;99.90
7445;DHT22;3764;48.126;11.594;2023-08-06T01:36:57;15.10;99.90
7445;DHT22;3764;48.126;11.594;2023-08-06T01:39:24;15.10;99.90
7445;DHT22;3764;48.126;11.594;2023-08-06T01:41:52;15.10;99.90
7445;DHT22;3764;48.126;11.594;2023-08-06T01:44:19;15.10;99.90
7445;DHT22;3764;48.126;11.594;2023-08-06T01:46:46;15.10;99.90
7445;DHT22;3764;48.126;11.594;2023-08-06T01:49:13;15.00;99.90
7445;DHT22;3764;48.126;11.594;2023-08-06T01:51:40;15.00;99.90
7445;DHT22;3764;48.126;11.594;2023-08-06T01:54:09;15.00;99.90
7445;DHT22;3764;48.126;11.594;2023-08-06T01:56:36;15.00;99.90
7445;DHT22;3764;48.126;11.594;2023-08-06T01:59:03;14.90;99.90
7445;DHT22;3764;48.126;11.594;2023-08-06T02:01:30;14.90;99.90
7445;DHT22;3764;48.126;11.594;2023-08-06T02:03:57;14.90;99.90
7445;DHT22;3764;48.126;11.594;2023-08-06T02:06:24;14.80;99.90
7445;DHT22;3764;48.126;11.594;2023-08-06T02:08:51;14.80;99.90
7445;DHT22;3764;48.126;11.594;2023-08-06T02:11:20;14.70;99.90
7445;DHT22;3764;48.126;11.594;2023-08-06T02:13:47;14.70;99.90
7445;DHT22;3764;48.126;11.594;2023-08-06T02:16:14;14.70;99.90
7445;DHT22;3764;48.126;11.594;2023-08-06T02:18:41;14.70;99.90
7445;DHT22;3764;48.126;11.594;2023-08-06T02:21:08;14.60;99.90
7445;DHT22;3764;48.126;11.594;2023-08-06T02:23:35;14.60;99.90
7445;DHT22;3764;48.126;11.594;2023-08-06T02:26:03;14.60;99.90
7445;DHT22;3764;48.126;11.594;2023-08-06T02:28:32;14.60;99.90
7445;DHT22;3764;48.126;11.594;2023-08-06T02:30:59;14.50;99.90
7445;DHT22;3764;48.126;11.594;2023-08-06T02:33:27;14.50;99.90
7445;DHT22;3764;48.126;11.594;2023-08-06T02:35:59;14.50;99.90
7445;DHT22;3764;48.126;11.594;2023-08-06T02:38:27;14.50;99.90
7445;DHT22;3764;48.126;11.594;2023-08-06T02:40:54;14.50;99.90
7445;DHT22;3764;48.126;11.594;2023-08-06T02:43:21;14.50;99.90
7445;DHT22;3764;48.126;11.594;2023-08-06T02:45:50;14.50;99.90
7445;DHT22;3764;48.126;11.594;2023-08-06T02:48:17;14.50;99.90
7445;DHT22;3764;48.126;11.594;2023-08-06T02:50:44;14.50;99.90
7445;DHT22;3764;48.126;11.594;2023-08-06T02:53:12;14.50;99.90
7445;DHT22;3764;48.126;11.594;2023-08-06T02:55:45;14.50;99.90
7445;DHT22;3764;48.126;11.594;2023-08-06T02:58:13;14.50;99.90
7445;DHT22;3764;48.126;11.594;2023-08-06T03:00:40;14.50;99.90
7445;DHT22;3764;48.126;11.594;2023-08-06T03:03:09;14.40;99.90
7445;DHT22;3764;48.126;11.594;2023-08-06T03:05:36;14.40;99.90
7445;DHT22;3764;48.126;11.594;2023-08-06T03:08:03;14.30;99.90
7445;DHT22;3764;48.126;11.594;2023-08-06T03:10:31;14.40;99.90
7445;DHT22;3764;48.126;11.594;2023-08-06T03:12:58;14.40;99.90
7445;DHT22;3764;48.126;11.594;2023-08-06T03:15:25;14.40;99.90
7445;DHT22;3764;48.126;11.594;2023-08-06T03:17:52;14.40;99.90
7445;DHT22;3764;48.126;11.594;2023-08-06T03:20:25;14.40;99.90
7445;DHT22;3764;48.126;11.594;2023-08-06T03:22:52;14.40;99.90
7445;DHT22;3764;48.126;11.594;2023-08-06T03:25:19;14.40;99.90
7445;DHT22;3764;48.126;11.594;2023-08-06T03:27:46;14.40;99.90
7445;DHT22;3764;48.126;11.594;2023-08-06T03:30:13;14.40;99.90
7445;DHT22;3764;48.126;11.594;2023-08-06T03:32:40;14.40;99.90
7445;DHT22;3764;48.126;11.594;2023-08-06T03:35:08;14.40;99.90
7445;DHT22;3764;48.126;11.594;2023-08-06T03:37:36;14.30;99.90
7445;DHT22;3764;48.126;11.594;2023-08-06T03:40:04;14.30;99.90
7445;DHT22;3764;48.126;11.594;2023-08-06T03:42:32;14.30;99.90
7445;DHT22;3764;48.126;11.594;2023-08-06T03:44:59;14.40;99.90
7445;DHT22;3764;48.126;11.594;2023-08-06T03:47:26;14.40;99.90
7445;DHT22;3764;48.126;11.594;2023-08-06T03:49:53;14.40;99.90
7445;DHT22;3764;48.126;11.594;2023-08-06T03:52:20;14.40;99.90
7445;DHT22;3764;48.126;11.594;2023-08-06T03:54:49;14.50;99.90
7445;DHT22;3764;48.126;11.594;2023-08-06T03:57:16;14.50;99.90
7445;DHT22;3764;48.126;11.594;2023-08-06T03:59:43;14.50;99.90
7445;DHT22;3764;48.126;11.594;2023-08-06T04:02:10;14.50;99.90
7445;DHT22;3764;48.126;11.594;2023-08-06T04:04:37;14.50;99.90
7445;DHT22;3764;48.126;11.594;2023-08-06T04:07:04;14.40;99.90
7445;DHT22;3764;48.126;11.594;2023-08-06T04:09:31;14.40;99.90
7445;DHT22;3764;48.126;11.594;2023-08-06T04:12:00;14.40;99.90
7445;DHT22;3764;48.126;11.594;2023-08-06T04:14:28;14.40;99.90
7445;DHT22;3764;48.126;11.594;2023-08-06T04:16:55;14.40;99.90
7445;DHT22;3764;48.126;11.594;2023-08-06T04:19:22;14.30;99.90
7445;DHT22;3764;48.126;11.594;2023-08-06T04:21:50;14.40;99.90
7445;DHT22;3764;48.126;11.594;2023-08-06T04:24:17;14.40;99.90
7445;DHT22;3764;48.126;11.594;2023-08-06T04:26:44;14.40;99.90
7445;DHT22;3764;48.126;11.594;2023-08-06T04:29:13;14.40;99.90
7445;DHT22;3764;48.126;11.594;2023-08-06T04:31:40;14.40;99.90
7445;DHT22;3764;48.126;11.594;2023-08-06T04:34:07;14.40;99.90
7445;DHT22;3764;48.126;11.594;2023-08-06T04:36:35;14.40;99.90
7445;DHT22;3764;48.126;11.594;2023-08-06T04:39:02;14.50;99.90
7445;DHT22;3764;48.126;11.594;2023-08-06T04:41:29;14.50;99.90
7445;DHT22;3764;48.126;11.594;2023-08-06T04:43:57;14.40;99.90
7445;DHT22;3764;48.126;11.594;2023-08-06T04:46:25;14.50;99.90
7445;DHT22;3764;48.126;11.594;2023-08-06T04:48:52;14.50;99.90
7445;DHT22;3764;48.126;11.594;2023-08-06T04:51:19;14.40;99.90
7445;DHT22;3764;48.126;11.594;2023-08-06T04:53:46;14.40;99.90
7445;DHT22;3764;48.126;11.594;2023-08-06T04:56:13;14.50;99.90
7445;DHT22;3764;48.126;11.594;2023-08-06T04:58:41;14.50;99.90
7445;DHT22;3764;48.126;11.594;2023-08-06T05:01:08;14.70;99.90
7445;DHT22;3764;48.126;11.594;2023-08-06T05:03:37;14.70;99.90
7445;DHT22;3764;48.126;11.594;2023-08-06T05:06:04;14.70;99.90
7445;DHT22;3764;48.126;11.594;2023-08-06T05:08:31;14.80;99.90
7445;DHT22;3764;48.126;11.594;2023-08-06T05:10:58;14.80;99.90
7445;DHT22;3764;48.126;11.594;2023-08-06T05:13:25;14.90;99.90
7445;DHT22;3764;48.126;11.594;2023-08-06T05:15:53;15.00;99.90
7445;DHT22;3764;48.126;11.594;2023-08-06T05:18:21;15.00;99.90
7445;DHT22;3764;48.126;11.594;2023-08-06T05:20:49;15.00;99.90
7445;DHT22;3764;48.126;11.594;2023-08-06T05:23:16;15.00;99.90
7445;DHT22;3764;48.126;11.594;2023-08-06T05:25:43;15.00;99.90
7445;DHT22;3764;48.126;11.594;2023-08-06T05:28:11;15.00;99.90
7445;DHT22;3764;48.126;11.594;2023-08-06T05:30:39;15.00;99.90
7445;DHT22;3764;48.126;11.594;2023-08-06T05:33:06;15.00;99.90
7445;DHT22;3764;48.126;11.594;2023-08-06T05:35:34;15.00;99.90
7445;DHT22;3764;48.126;11.594;2023-08-06T05:38:02;15.00;99.90
7445;DHT22;3764;48.126;11.594;2023-08-06T05:40:29;14.90;99.90
7445;DHT22;3764;48.126;11.594;2023-08-06T05:42:56;14.90;99.90
7445;DHT22;3764;48.126;11.594;2023-08-06T05:45:23;14.80;99.90
7445;DHT22;3764;48.126;11.594;2023-08-06T05:47:50;14.70;99.90
7445;DHT22;3764;48.126;11.594;2023-08-06T05:50:19;14.70;99.90
7445;DHT22;3764;48.126;11.594;2023-08-06T05:52:46;14.70;99.90
7445;DHT22;3764;48.126;11.594;2023-08-06T05:55:15;14.80;99.90
7445;DHT22;3764;48.126;11.594;2023-08-06T05:57:42;14.80;99.90
7445;DHT22;3764;48.126;11.594;2023-08-06T06:00:10;14.80;99.90
7445;DHT22;3764;48.126;11.594;2023-08-06T06:02:37;14.80;99.90
7445;DHT22;3764;48.126;11.594;2023-08-06T06:05:05;14.70;99.90
7445;DHT22;3764;48.126;11.594;2023-08-06T06:07:32;14.70;99.90
7445;DHT22;3764;48.126;11.594;2023-08-06T06:09:59;14.70;99.90
7445;DHT22;3764;48.126;11.594;2023-08-06T06:12:27;14.80;99.90
7445;DHT22;3764;48.126;11.594;2023-08-06T06:14:54;14.80;99.90
7445;DHT22;3764;48.126;11.594;2023-08-06T06:17:22;14.90;99.90
7445;DHT22;3764;48.126;11.594;2023-08-06T06:19:49;14.80;99.90
7445;DHT22;3764;48.126;11.594;2023-08-06T06:22:16;14.90;99.90
7445;DHT22;3764;48.126;11.594;2023-08-06T06:24:43;14.90;99.90
7445;DHT22;3764;48.126;11.594;2023-08-06T06:27:10;15.00;99.90
7445;DHT22;3764;48.126;11.594;2023-08-06T06:29:38;15.10;99.90
7445;DHT22;3764;48.126;11.594;2023-08-06T06:32:06;15.20;99.90
7445;DHT22;3764;48.126;11.594;2023-08-06T06:34:33;15.20;99.90
7445;DHT22;3764;48.126;11.594;2023-08-06T06:37:00;15.20;99.90
7445;DHT22;3764;48.126;11.594;2023-08-06T06:39:27;15.20;99.90
7445;DHT22;3764;48.126;11.594;2023-08-06T06:41:55;15.30;99.90
7445;DHT22;3764;48.126;11.594;2023-08-06T06:44:22;15.40;99.90
7445;DHT22;3764;48.126;11.594;2023-08-06T06:46:50;15.40;99.90
7445;DHT22;3764;48.126;11.594;2023-08-06T06:49:17;15.50;99.90
7445;DHT22;3764;48.126;11.594;2023-08-06T06:51:44;15.50;99.90
7445;DHT22;3764;48.126;11.594;2023-08-06T06:54:11;15.50;99.90
7445;DHT22;3764;48.126;11.594;2023-08-06T06:56:38;15.60;99.90
7445;DHT22;3764;48.126;11.594;2023-08-06T06:59:05;15.60;99.90
7445;DHT22;3764;48.126;11.594;2023-08-06T07:01:33;15.70;99.90
7445;DHT22;3764;48.126;11.594;2023-08-06T07:04:01;15.70;99.90
7445;DHT22;3764;48.126;11.594;2023-08-06T07:06:30;15.80;99.90
7445;DHT22;3764;48.126;11.594;2023-08-06T07:08:57;15.80;99.90
7445;DHT22;3764;48.126;11.594;2023-08-06T07:11:24;15.90;99.90
7445;DHT22;3764;48.126;11.594;2023-08-06T07:13:56;15.90;99.90
7445;DHT22;3764;48.126;11.594;2023-08-06T07:16:24;16.00;99.90
7445;DHT22;3764;48.126;11.594;2023-08-06T07:18:51;16.00;99.90
7445;DHT22;3764;48.126;11.594;2023-08-06T07:21:20;16.00;99.90
7445;DHT22;3764;48.126;11.594;2023-08-06T07:23:47;16.00;99.90
7445;DHT22;3764;48.126;11.594;2023-08-06T07:26:16;16.10;99.90
7445;DHT22;3764;48.126;11.594;2023-08-06T07:28:43;16.10;99.90
7445;DHT22;3764;48.126;11.594;2023-08-06T07:31:10;16.10;99.90
7445;DHT22;3764;48.126;11.594;2023-08-06T07:33:38;16.10;99.90
7445;DHT22;3764;48.126;11.594;2023-08-06T07:36:09;16.10;99.90
7445;DHT22;3764;48.126;11.594;2023-08-06T07:38:38;16.10;99.90
7445;DHT22;3764;48.126;11.594;2023-08-06T07:41:05;16.10;99.90
7445;DHT22;3764;48.126;11.594;2023-08-06T07:43:32;16.10;99.90
7445;DHT22;3764;48.126;11.594;2023-08-06T07:46:01;16.10;99.90
7445;DHT22;3764;48.126;11.594;2023-08-06T07:48:29;16.00;99.90
7445;DHT22;3764;48.126;11.594;2023-08-06T07:50:56;15.90;99.90
7445;DHT22;3764;48.126;11.594;2023-08-06T07:53:25;15.80;99.90
7445;DHT22;3764;48.126;11.594;2023-08-06T07:55:56;15.80;99.90
7445;DHT22;3764;48.126;11.594;2023-08-06T07:58:24;15.70;99.90
7445;DHT22;3764;48.126;11.594;2023-08-06T08:00:52;15.70;99.90
7445;DHT22;3764;48.126;11.594;2023-08-06T08:03:19;15.80;99.90
7445;DHT22;3764;48.126;11.594;2023-08-06T08:05:49;15.90;99.90
7445;DHT22;3764;48.126;11.594;2023-08-06T08:08:17;15.90;99.90
7445;DHT22;3764;48.126;11.594;2023-08-06T08:10:44;15.90;99.90
7445;DHT22;3764;48.126;11.594;2023-08-06T08:13:13;16.00;99.90
7445;DHT22;3764;48.126;11.594;2023-08-06T08:15:40;16.00;99.90
7445;DHT22;3764;48.126;11.594;2023-08-06T08:18:07;16.00;99.90
7445;DHT22;3764;48.126;11.594;2023-08-06T08:20:34;16.10;99.90
7445;DHT22;3764;48.126;11.594;2023-08-06T08:23:02;16.10;99.90
7445;DHT22;3764;48.126;11.594;2023-08-06T08:25:29;16.10;99.90
7445;DHT22;3764;48.126;11.594;2023-08-06T08:27:57;16.10;99.90
7445;DHT22;3764;48.126;11.594;2023-08-06T08:30:26;16.00;99.90
7445;DHT22;3764;48.126;11.594;2023-08-06T08:32:53;16.10;99.90
7445;DHT22;3764;48.126;11.594;2023-08-06T08:35:20;16.10;99.90
7445;DHT22;3764;48.126;11.594;2023-08-06T08:37:47;16.20;99.90
7445;DHT22;3764;48.126;11.594;2023-08-06T08:40:14;16.20;99.90
7445;DHT22;3764;48.126;11.594;2023-08-06T08:42:42;16.30;99.90
7445;DHT22;3764;48.126;11.594;2023-08-06T08:48:04;16.30;99.90
7445;DHT22;3764;48.126;11.594;2023-08-06T08:50:31;16.30;99.90
7445;DHT22;3764;48.126;11.594;2023-08-06T08:52:58;16.30;99.90
7445;DHT22;3764;48.126;11.594;2023-08-06T08:55:26;16.30;99.90
7445;DHT22;3764;48.126;11.594;2023-08-06T08:57:53;16.30;99.90
7445;DHT22;3764;48.126;11.594;2023-08-06T09:00:21;16.30;99.90
7445;DHT22;3764;48.126;11.594;2023-08-06T09:02:48;16.30;99.90
7445;DHT22;3764;48.126;11.594;2023-08-06T09:05:18;16.30;99.90
7445;DHT22;3764;48.126;11.594;2023-08-06T09:07:49;16.30;99.90
7445;DHT22;3764;48.126;11.594;2023-08-06T09:10:18;16.30;99.90
7445;DHT22;3764;48.126;11.594;2023-08-06T09:12:50;16.30;99.90
7445;DHT22;3764;48.126;11.594;2023-08-06T09:15:19;16.30;99.90
7445;DHT22;3764;48.126;11.594;2023-08-06T09:17:46;16.30;99.90
7445;DHT22;3764;48.126;11.594;2023-08-06T09:20:14;16.30;99.90
7445;DHT22;3764;48.126;11.594;2023-08-06T09:22:43;16.30;99.90
7445;DHT22;3764;48.126;11.594;2023-08-06T09:25:11;16.30;99.90
7445;DHT22;3764;48.126;11.594;2023-08-06T09:27:39;16.20;99.90
7445;DHT22;3764;48.126;11.594;2023-08-06T09:30:07;16.10;99.90
7445;DHT22;3764;48.126;11.594;2023-08-06T09:32:48;16.20;99.90
7445;DHT22;3764;48.126;11.594;2023-08-06T09:35:17;16.10;99.90
7445;DHT22;3764;48.126;11.594;2023-08-06T09:37:45;16.10;99.90
7445;DHT22;3764;48.126;11.594;2023-08-06T09:40:26;16.10;99.90
7445;DHT22;3764;48.126;11.594;2023-08-06T09:42:54;16.10;99.90
7445;DHT22;3764;48.126;11.594;2023-08-06T09:45:21;16.10;99.90
7445;DHT22;3764;48.126;11.594;2023-08-06T09:47:50;16.10;99.90
7445;DHT22;3764;48.126;11.594;2023-08-06T09:50:30;16.10;99.90
7445;DHT22;3764;48.126;11.594;2023-08-06T09:53:01;16.00;99.90
7445;DHT22;3764;48.126;11.594;2023-08-06T09:55:28;16.00;99.90
7445;DHT22;3764;48.126;11.594;2023-08-06T09:57:55;16.00;99.90
7445;DHT22;3764;48.126;11.594;2023-08-06T10:00:23;16.00;99.90
7445;DHT22;3764;48.126;11.594;2023-08-06T10:02:51;16.00;99.90
7445;DHT22;3764;48.126;11.594;2023-08-06T10:05:22;16.00;99.90
7445;DHT22;3764;48.126;11.594;2023-08-06T10:07:50;16.00;99.90
7445;DHT22;3764;48.126;11.594;2023-08-06T10:10:19;16.00;99.90
7445;DHT22;3764;48.126;11.594;2023-08-06T10:12:48;16.00;99.90
7445;DHT22;3764;48.126;11.594;2023-08-06T10:15:18;16.00;99.90
7445;DHT22;3764;48.126;11.594;2023-08-06T10:17:47;16.00;99.90
7445;DHT22;3764;48.126;11.594;2023-08-06T10:20:17;16.00;99.90
7445;DHT22;3764;48.126;11.594;2023-08-06T10:22:44;16.00;99.90
7445;DHT22;3764;48.126;11.594;2023-08-06T10:25:17;16.00;99.90
7445;DHT22;3764;48.126;11.594;2023-08-06T10:27:53;15.90;99.90
7445;DHT22;3764;48.126;11.594;2023-08-06T10:30:24;16.00;99.90
7445;DHT22;3764;48.126;11.594;2023-08-06T10:32:53;16.00;99.90
7445;DHT22;3764;48.126;11.594;2023-08-06T10:35:31;16.00;99.90
7445;DHT22;3764;48.126;11.594;2023-08-06T10:37:59;16.10;99.90
7445;DHT22;3764;48.126;11.594;2023-08-06T10:40:28;16.20;99.90
7445;DHT22;3764;48.126;11.594;2023-08-06T10:42:59;16.20;99.90
7445;DHT22;3764;48.126;11.594;2023-08-06T10:45:26;16.20;99.90
7445;DHT22;3764;48.126;11.594;2023-08-06T10:47:54;16.20;99.90
7445;DHT22;3764;48.126;11.594;2023-08-06T10:50:22;16.20;99.90
7445;DHT22;3764;48.126;11.594;2023-08-06T10:52:49;16.20;99.90
7445;DHT22;3764;48.126;11.594;2023-08-06T10:55:23;16.20;99.90
7445;DHT22;3764;48.126;11.594;2023-08-06T10:57:52;16.20;99.90
7445;DHT22;3764;48.126;11.594;2023-08-06T11:00:21;16.10;99.90
7445;DHT22;3764;48.126;11.594;2023-08-06T11:02:50;16.10;99.90
7445;DHT22;3764;48.126;11.594;2023-08-06T11:05:17;16.10;99.90
7445;DHT22;3764;48.126;11.594;2023-08-06T11:07:44;16.20;99.90
7445;DHT22;3764;48.126;11.594;2023-08-06T11:10:14;16.20;99.90
7445;DHT22;3764;48.126;11.594;2023-08-06T11:12:41;16.20;99.90
7445;DHT22;3764;48.126;11.594;2023-08-06T11:15:10;16.30;99.90
7445;DHT22;3764;48.126;11.594;2023-08-06T11:17:40;16.30;99.90
7445;DHT22;3764;48.126;11.594;2023-08-06T11:20:08;16.30;99.90
7445;DHT22;3764;48.126;11.594;2023-08-06T11:22:36;16.30;99.90
7445;DHT22;3764;48.126;11.594;2023-08-06T11:25:05;16.30;99.90
7445;DHT22;3764;48.126;11.594;2023-08-06T11:27:32;16.30;99.90
7445;DHT22;3764;48.126;11.594;2023-08-06T11:30:00;16.30;99.90
7445;DHT22;3764;48.126;11.594;2023-08-06T11:32:28;16.20;99.90
7445;DHT22;3764;48.126;11.594;2023-08-06T11:34:56;16.20;99.90
7445;DHT22;3764;48.126;11.594;2023-08-06T11:37:23;16.20;99.90
7445;DHT22;3764;48.126;11.594;2023-08-06T11:39:51;16.20;99.90
7445;DHT22;3764;48.126;11.594;2023-08-06T11:42:19;16.20;99.90
7445;DHT22;3764;48.126;11.594;2023-08-06T11:44:46;16.20;99.90
7445;DHT22;3764;48.126;11.594;2023-08-06T11:47:14;16.20;99.90
7445;DHT22;3764;48.126;11.594;2023-08-06T11:49:45;16.10;99.90
7445;DHT22;3764;48.126;11.594;2023-08-06T11:52:20;16.10;99.90
7445;DHT22;3764;48.126;11.594;2023-08-06T11:55:00;16.10;99.90
7445;DHT22;3764;48.126;11.594;2023-08-06T11:57:29;16.10;99.90
7445;DHT22;3764;48.126;11.594;2023-08-06T12:00:04;16.10;99.90
7445;DHT22;3764;48.126;11.594;2023-08-06T12:02:32;16.20;99.90
7445;DHT22;3764;48.126;11.594;2023-08-06T12:05:10;16.20;99.90
7445;DHT22;3764;48.126;11.594;2023-08-06T12:07:38;16.30;99.90
7445;DHT22;3764;48.126;11.594;2023-08-06T12:10:06;16.30;99.90
7445;DHT22;3764;48.126;11.594;2023-08-06T12:12:34;16.20;99.90
7445;DHT22;3764;48.126;11.594;2023-08-06T12:15:01;16.20;99.90
7445;DHT22;3764;48.126;11.594;2023-08-06T12:17:28;16.20;99.90
7445;DHT22;3764;48.126;11.594;2023-08-06T12:19:55;16.20;99.90
7445;DHT22;3764;48.126;11.594;2023-08-06T12:22:24;16.10;99.90
7445;DHT22;3764;48.126;11.594;2023-08-06T12:24:51;16.10;99.90
7445;DHT22;3764;48.126;11.594;2023-08-06T12:27:18;16.10;99.90
7445;DHT22;3764;48.126;11.594;2023-08-06T12:29:47;16.00;99.90
7445;DHT22;3764;48.126;11.594;2023-08-06T12:32:15;16.00;99.90
7445;DHT22;3764;48.126;11.594;2023-08-06T12:34:43;16.10;99.90
7445;DHT22;3764;48.126;11.594;2023-08-06T12:37:10;16.00;99.90
7445;DHT22;3764;48.126;11.594;2023-08-06T12:39:38;16.10;99.90
7445;DHT22;3764;48.126;11.594;2023-08-06T12:42:06;16.10;99.90
7445;DHT22;3764;48.126;11.594;2023-08-06T12:44:33;16.10;99.90
7445;DHT22;3764;48.126;11.594;2023-08-06T12:47:00;16.00;99.90
7445;DHT22;3764;48.126;11.594;2023-08-06T12:49:27;16.00;99.90
7445;DHT22;3764;48.126;11.594;2023-08-06T12:51:55;15.90;99.90
7445;DHT22;3764;48.126;11.594;2023-08-06T12:54:25;15.90;99.90
7445;DHT22;3764;48.126;11.594;2023-08-06T12:56:54;15.90;99.90
7445;DHT22;3764;48.126;11.594;2023-08-06T12:59:21;15.90;99.90
7445;DHT22;3764;48.126;11.594;2023-08-06T13:01:49;15.90;99.90
7445;DHT22;3764;48.126;11.594;2023-08-06T13:04:16;15.90;99.90
7445;DHT22;3764;48.126;11.594;2023-08-06T13:06:43;15.90;99.90
7445;DHT22;3764;48.126;11.594;2023-08-06T13:09:10;15.90;99.90
7445;DHT22;3764;48.126;11.594;2023-08-06T13:11:38;16.00;99.90
7445;DHT22;3764;48.126;11.594;2023-08-06T13:14:08;16.00;99.90
7445;DHT22;3764;48.126;11.594;2023-08-06T13:16:36;16.00;99.90
7445;DHT22;3764;48.126;11.594;2023-08-06T13:19:03;16.10;99.90
7445;DHT22;3764;48.126;11.594;2023-08-06T13:21:35;16.10;99.90
7445;DHT22;3764;48.126;11.594;2023-08-06T13:24:02;16.20;99.90
7445;DHT22;3764;48.126;11.594;2023-08-06T13:26:30;16.20;99.90
7445;DHT22;3764;48.126;11.594;2023-08-06T13:28:58;16.20;99.90
7445;DHT22;3764;48.126;11.594;2023-08-06T13:31:27;16.20;99.90
7445;DHT22;3764;48.126;11.594;2023-08-06T13:33:54;16.00;99.90
7445;DHT22;3764;48.126;11.594;2023-08-06T13:36:23;15.90;99.90
7445;DHT22;3764;48.126;11.594;2023-08-06T13:38:51;15.80;99.90
7445;DHT22;3764;48.126;11.594;2023-08-06T13:41:18;15.70;99.90
7445;DHT22;3764;48.126;11.594;2023-08-06T13:43:45;15.70;99.90
7445;DHT22;3764;48.126;11.594;2023-08-06T13:46:12;15.60;99.90
7445;DHT22;3764;48.126;11.594;2023-08-06T13:48:46;15.60;99.90
7445;DHT22;3764;48.126;11.594;2023-08-06T13:51:13;15.60;99.90
7445;DHT22;3764;48.126;11.594;2023-08-06T13:53:41;15.60;99.90
7445;DHT22;3764;48.126;11.594;2023-08-06T13:56:09;15.50;99.90
7445;DHT22;3764;48.126;11.594;2023-08-06T13:58:36;15.60;99.90
7445;DHT22;3764;48.126;11.594;2023-08-06T14:01:04;15.50;99.90
7445;DHT22;3764;48.126;11.594;2023-08-06T14:03:31;15.50;99.90
7445;DHT22;3764;48.126;11.594;2023-08-06T14:06:00;15.40;99.90
7445;DHT22;3764;48.126;11.594;2023-08-06T14:08:27;15.40;99.90
7445;DHT22;3764;48.126;11.594;2023-08-06T14:10:54;15.30;99.90
7445;DHT22;3764;48.126;11.594;2023-08-06T14:13:22;15.30;99.90
7445;DHT22;3764;48.126;11.594;2023-08-06T14:15:49;15.20;99.90
7445;DHT22;3764;48.126;11.594;2023-08-06T14:18:17;15.20;99.90
7445;DHT22;3764;48.126;11.594;2023-08-06T14:20:44;15.20;99.90
7445;DHT22;3764;48.126;11.594;2023-08-06T14:23:13;15.10;99.90
7445;DHT22;3764;48.126;11.594;2023-08-06T14:25:40;15.10;99.90
7445;DHT22;3764;48.126;11.594;2023-08-06T14:28:07;15.10;99.90
7445;DHT22;3764;48.126;11.594;2023-08-06T14:30:34;15.10;99.90
7445;DHT22;3764;48.126;11.594;2023-08-06T14:33:02;15.10;99.90
7445;DHT22;3764;48.126;11.594;2023-08-06T14:35:29;15.10;99.90
7445;DHT22;3764;48.126;11.594;2023-08-06T14:37:56;15.00;99.90
7445;DHT22;3764;48.126;11.594;2023-08-06T14:40:24;15.00;99.90
7445;DHT22;3764;48.126;11.594;2023-08-06T14:42:54;15.00;99.90
7445;DHT22;3764;48.126;11.594;2023-08-06T14:45:21;14.90;99.90
7445;DHT22;3764;48.126;11.594;2023-08-06T14:47:48;14.90;99.90
7445;DHT22;3764;48.126;11.594;2023-08-06T14:50:15;14.90;99.90
7445;DHT22;3764;48.126;11.594;2023-08-06T14:52:43;14.90;99.90
7445;DHT22;3764;48.126;11.594;2023-08-06T14:55:10;14.80;99.90
7445;DHT22;3764;48.126;11.594;2023-08-06T14:57:38;14.80;99.90
7445;DHT22;3764;48.126;11.594;2023-08-06T15:00:06;14.80;99.90
7445;DHT22;3764;48.126;11.594;2023-08-06T15:02:36;14.70;99.90
7445;DHT22;3764;48.126;11.594;2023-08-06T15:05:03;14.70;99.90
7445;DHT22;3764;48.126;11.594;2023-08-06T15:07:31;14.60;99.90
7445;DHT22;3764;48.126;11.594;2023-08-06T15:10:01;14.60;99.90
7445;DHT22;3764;48.126;11.594;2023-08-06T15:12:28;14.60;99.90
7445;DHT22;3764;48.126;11.594;2023-08-06T15:14:57;14.60;99.90
7445;DHT22;3764;48.126;11.594;2023-08-06T15:17:26;14.60;99.90
7445;DHT22;3764;48.126;11.594;2023-08-06T15:19:56;14.60;99.90
7445;DHT22;3764;48.126;11.594;2023-08-06T15:22:23;14.60;99.90
7445;DHT22;3764;48.126;11.594;2023-08-06T15:24:50;14.70;99.90
7445;DHT22;3764;48.126;11.594;2023-08-06T15:27:17;14.70;99.90
7445;DHT22;3764;48.126;11.594;2023-08-06T15:29:45;14.70;99.90
7445;DHT22;3764;48.126;11.594;2023-08-06T15:32:13;14.60;99.90
7445;DHT22;3764;48.126;11.594;2023-08-06T15:34:40;14.60;99.90
7445;DHT22;3764;48.126;11.594;2023-08-06T15:37:07;14.60;99.90
7445;DHT22;3764;48.126;11.594;2023-08-06T15:39:35;14.60;99.90
7445;DHT22;3764;48.126;11.594;2023-08-06T15:42:02;14.70;99.90
7445;DHT22;3764;48.126;11.594;2023-08-06T15:44:29;14.60;99.90
7445;DHT22;3764;48.126;11.594;2023-08-06T15:46:56;14.60;99.90
7445;DHT22;3764;48.126;11.594;2023-08-06T15:49:25;14.60;99.90
7445;DHT22;3764;48.126;11.594;2023-08-06T15:51:52;14.60;99.90
7445;DHT22;3764;48.126;11.594;2023-08-06T15:54:19;14.60;99.90